Time;durP1;ratioP1;P1;durP2;ratioP2;P2;SDS_P1;SDS_P2;PMS_P1;PMS_P2;Temp;Humidity;BMP_temperature;BMP_pressure;BME280_temperature;BME280_humidity;BME280_pressure;Samples;Min_cycle;Max_cycle;Signal;HPM_P1;HPM_P2
2023/08/13 00:05:00;;;;;;;12.20;11.37;;;21.90;99.90;;;;;;10401447;28;20228;-80
2023/08/13 00:10:04;;;;;;;11.03;10.33;;;21.80;99.90;;;;;;10406771;28;20318;-80
2023/08/13 00:15:07;;;;;;;10.80;10.10;;;21.80;99.90;;;;;;10418679;28;20218;-80
2023/08/13 00:20:10;;;;;;;11.80;10.90;;;21.80;99.90;;;;;;10419692;28;20187;-81
2023/08/13 00:25:13;;;;;;;11.17;10.37;;;21.70;99.90;;;;;;10418893;28;20211;-81
2023/08/13 00:30:16;;;;;;;11.40;10.70;;;21.70;99.90;;;;;;10402410;28;20214;-81
2023/08/13 00:35:18;;;;;;;10.70;10.00;;;21.60;99.90;;;;;;10395397;28;20227;-81
2023/08/13 00:40:21;;;;;;;11.83;11.03;;;21.60;99.90;;;;;;10364878;28;20195;-81
2023/08/13 00:45:24;;;;;;;10.10;9.40;;;21.60;99.90;;;;;;10399118;28;20230;-80
2023/08/13 00:50:26;;;;;;;9.97;9.20;;;21.60;99.90;;;;;;10418877;28;20238;-81
2023/08/13 00:55:30;;;;;;;9.90;9.20;;;21.50;99.90;;;;;;10354116;28;20227;-81
2023/08/13 01:00:33;;;;;;;10.73;9.83;;;21.50;99.90;;;;;;10382149;28;20208;-80
2023/08/13 01:05:40;;;;;;;11.50;10.80;;;21.40;99.90;;;;;;10355860;28;20326;-80
2023/08/13 01:10:49;;;;;;;11.37;10.57;;;21.40;99.90;;;;;;10369206;28;20246;-81
2023/08/13 01:15:53;;;;;;;11.43;10.77;;;21.40;99.90;;;;;;10359651;28;20215;-80
2023/08/13 01:20:55;;;;;;;10.23;9.63;;;21.30;99.90;;;;;;10418152;28;20194;-81
2023/08/13 01:26:06;;;;;;;10.80;10.20;;;21.30;99.90;;;;;;10415736;28;20268;-80
2023/08/13 01:31:12;;;;;;;11.23;10.53;;;21.30;99.90;;;;;;10415762;28;20218;-79
2023/08/13 01:36:16;;;;;;;10.80;10.13;;;21.20;99.90;;;;;;10348448;28;20229;-80
2023/08/13 01:41:20;;;;;;;10.30;9.40;;;21.20;99.90;;;;;;10415380;28;20213;-80
2023/08/13 01:46:22;;;;;;;10.27;9.57;;;21.20;99.90;;;;;;10413622;28;20222;-80
2023/08/13 01:51:24;;;;;;;10.67;9.83;;;21.20;99.90;;;;;;10416508;28;20664;-80
2023/08/13 01:56:28;;;;;;;10.60;10.00;;;21.20;99.90;;;;;;10414429;28;20202;-80
2023/08/13 02:01:30;;;;;;;10.13;9.53;;;21.20;99.90;;;;;;10371722;28;20242;-80
2023/08/13 02:06:35;;;;;;;10.30;9.60;;;21.20;99.90;;;;;;10375177;28;20572;-80
2023/08/13 02:11:38;;;;;;;9.60;8.90;;;21.10;99.90;;;;;;10393474;28;20699;-80
2023/08/13 02:16:40;;;;;;;11.00;10.17;;;21.20;99.90;;;;;;10397047;28;20225;-83
2023/08/13 02:21:42;;;;;;;9.80;9.10;;;21.20;99.90;;;;;;10372980;28;20234;-81
2023/08/13 02:26:47;;;;;;;10.77;10.00;;;21.20;99.90;;;;;;10413768;28;20253;-80
2023/08/13 02:31:49;;;;;;;14.03;10.13;;;21.30;99.90;;;;;;10412783;28;20735;-80
2023/08/13 02:36:52;;;;;;;10.73;10.13;;;21.20;99.90;;;;;;10367257;28;20226;-80
2023/08/13 02:41:55;;;;;;;10.07;9.40;;;21.20;99.90;;;;;;10406761;28;20685;-79
2023/08/13 02:46:59;;;;;;;10.60;9.90;;;21.30;99.90;;;;;;10412133;28;20673;-80
2023/08/13 02:52:03;;;;;;;10.00;9.40;;;21.30;99.90;;;;;;10414924;28;20226;-80
2023/08/13 02:57:06;;;;;;;10.77;9.97;;;21.40;99.90;;;;;;10414755;28;20205;-81
2023/08/13 03:02:09;;;;;;;10.73;10.13;;;21.40;99.90;;;;;;10414294;28;20218;-80
2023/08/13 03:07:11;;;;;;;10.67;9.87;;;21.40;99.90;;;;;;10399197;28;20194;-81
2023/08/13 03:12:14;;;;;;;10.13;9.53;;;21.40;99.90;;;;;;10416528;28;20219;-81
2023/08/13 03:17:17;;;;;;;9.90;9.40;;;21.40;99.90;;;;;;10414296;28;20210;-80
2023/08/13 03:22:20;;;;;;;10.57;9.87;;;21.40;99.90;;;;;;10411610;28;20207;-80
2023/08/13 03:27:24;;;;;;;10.37;9.67;;;21.50;99.90;;;;;;10413300;28;20225;-80
2023/08/13 03:32:29;;;;;;;9.37;8.77;;;21.50;99.90;;;;;;10412001;28;20227;-81
2023/08/13 03:37:31;;;;;;;8.50;8.00;;;21.50;99.90;;;;;;10401707;28;20274;-81
2023/08/13 03:42:35;;;;;;;8.27;7.77;;;21.50;99.90;;;;;;10423927;28;20597;-80
2023/08/13 03:47:37;;;;;;;10.00;9.40;;;21.50;99.90;;;;;;10395249;28;20223;-79
2023/08/13 03:52:40;;;;;;;8.63;8.03;;;21.50;99.90;;;;;;10411192;28;20599;-81
2023/08/13 03:57:43;;;;;;;9.47;8.87;;;21.50;99.90;;;;;;10411946;28;20234;-80
2023/08/13 04:02:49;;;;;;;9.43;8.77;;;21.50;99.90;;;;;;10405538;28;20769;-79
2023/08/13 04:07:52;;;;;;;9.30;8.70;;;21.50;99.90;;;;;;10405821;28;20202;-81
2023/08/13 04:12:56;;;;;;;9.30;8.70;;;21.50;99.90;;;;;;10413377;28;20223;-81
2023/08/13 04:17:59;;;;;;;10.87;10.17;;;21.50;99.90;;;;;;10419777;28;20624;-81
2023/08/13 04:23:02;;;;;;;8.30;7.80;;;21.50;99.90;;;;;;10419662;28;20218;-80
2023/08/13 04:28:07;;;;;;;10.23;9.23;;;21.50;99.90;;;;;;10418000;28;20202;-80
2023/08/13 04:33:13;;;;;;;9.00;8.50;;;21.50;99.90;;;;;;10406883;28;20599;-80
2023/08/13 04:38:15;;;;;;;9.87;9.07;;;21.50;99.90;;;;;;10393914;28;20234;-80
2023/08/13 04:43:21;;;;;;;9.20;8.50;;;21.50;99.90;;;;;;10446174;23;20238;-84
2023/08/13 04:48:41;;;;;;;8.57;7.97;;;21.60;99.90;;;;;;10466927;28;20239;-84
2023/08/13 04:53:44;;;;;;;8.70;8.07;;;21.60;99.90;;;;;;10434325;28;20229;-85
2023/08/13 04:58:48;;;;;;;9.20;8.60;;;21.70;99.90;;;;;;10427441;28;20206;-84
2023/08/13 05:03:51;;;;;;;8.50;8.00;;;21.80;99.90;;;;;;10425357;28;20631;-84
2023/08/13 05:08:55;;;;;;;9.33;8.53;;;21.80;99.90;;;;;;10425945;28;20776;-85
2023/08/13 05:13:58;;;;;;;8.57;7.67;;;21.80;99.90;;;;;;10426838;28;20227;-84
2023/08/13 05:19:01;;;;;;;9.57;8.73;;;21.70;99.90;;;;;;10427395;28;20203;-84
2023/08/13 05:24:05;;;;;;;10.20;9.60;;;21.70;99.90;;;;;;10429361;28;20215;-84
2023/08/13 05:29:10;;;;;;;11.60;10.80;;;21.60;99.90;;;;;;10428316;28;20191;-84
2023/08/13 05:34:12;;;;;;;11.40;10.70;;;21.50;99.90;;;;;;10411798;28;20234;-85
2023/08/13 05:39:14;;;;;;;12.30;10.97;;;21.50;99.90;;;;;;10420291;28;20203;-85
2023/08/13 05:44:18;;;;;;;11.60;10.77;;;21.50;99.90;;;;;;10421881;28;20234;-85
2023/08/13 05:49:20;;;;;;;12.57;11.70;;;21.40;99.90;;;;;;10437886;28;20285;-84
2023/08/13 05:54:22;;;;;;;12.63;11.73;;;21.40;99.90;;;;;;10416673;28;20694;-84
2023/08/13 05:59:27;;;;;;;10.97;10.17;;;21.40;99.90;;;;;;10420513;28;20195;-84
2023/08/13 06:04:29;;;;;;;11.53;10.83;;;21.50;99.90;;;;;;10397108;28;20245;-84
2023/08/13 06:09:31;;;;;;;13.50;12.60;;;21.50;99.90;;;;;;10401980;28;20209;-84
2023/08/13 06:14:35;;;;;;;13.20;12.20;;;21.60;99.90;;;;;;10415127;28;20222;-85
2023/08/13 06:19:37;;;;;;;12.47;11.57;;;21.60;99.90;;;;;;10418942;28;20606;-84
2023/08/13 06:24:39;;;;;;;13.80;12.70;;;21.60;99.90;;;;;;10412951;28;20226;-85
2023/08/13 06:29:42;;;;;;;13.27;12.37;;;21.60;99.90;;;;;;10417160;28;20219;-84
2023/08/13 06:34:45;;;;;;;13.33;12.53;;;21.70;99.90;;;;;;10392823;28;20215;-84
2023/08/13 06:39:47;;;;;;;14.77;13.77;;;21.70;99.90;;;;;;10405233;28;20626;-85
2023/08/13 06:44:50;;;;;;;14.60;13.70;;;21.80;99.90;;;;;;10400982;28;20246;-85
2023/08/13 06:49:52;;;;;;;13.13;12.33;;;21.90;99.90;;;;;;10413660;28;20257;-85
2023/08/13 06:54:54;;;;;;;14.43;13.37;;;21.90;99.90;;;;;;10414501;28;20454;-85
2023/08/13 06:59:58;;;;;;;19.43;17.97;;;21.90;99.90;;;;;;10415254;28;20213;-85
2023/08/13 07:05:03;;;;;;;18.70;17.33;;;21.80;99.90;;;;;;10388642;28;20234;-85
2023/08/13 07:10:06;;;;;;;19.57;18.07;;;21.80;99.90;;;;;;10382590;28;20220;-86
2023/08/13 07:15:10;;;;;;;19.00;17.63;;;21.80;99.90;;;;;;10419679;28;20215;-85
2023/08/13 07:20:14;;;;;;;18.77;17.60;;;21.80;99.90;;;;;;10415100;28;20721;-85
2023/08/13 07:25:16;;;;;;;17.90;16.73;;;21.90;99.90;;;;;;10413052;28;20237;-85
2023/08/13 07:30:19;;;;;;;17.73;16.50;;;21.90;99.90;;;;;;10412267;28;20217;-84
2023/08/13 07:35:21;;;;;;;18.80;17.60;;;22.00;99.90;;;;;;10410329;28;20648;-85
2023/08/13 07:40:23;;;;;;;20.03;18.73;;;22.10;99.90;;;;;;10409083;28;20214;-85
2023/08/13 07:45:29;;;;;;;17.87;16.67;;;22.20;99.90;;;;;;10414929;28;20231;-85
2023/08/13 07:50:31;;;;;;;19.20;17.80;;;22.10;99.90;;;;;;10416777;28;20218;-85
2023/08/13 07:55:33;;;;;;;18.70;17.50;;;22.20;99.90;;;;;;10417942;28;20210;-85
2023/08/13 08:00:36;;;;;;;17.83;16.57;;;22.30;99.90;;;;;;10442636;28;20195;-85
2023/08/13 08:05:39;;;;;;;17.70;16.40;;;22.60;99.90;;;;;;10387634;28;20227;-86
2023/08/13 08:10:41;;;;;;;15.80;14.60;;;22.80;99.90;;;;;;10358917;28;20215;-86
2023/08/13 08:15:45;;;;;;;18.83;17.43;;;23.00;99.90;;;;;;10381755;28;20222;-85
2023/08/13 08:20:47;;;;;;;14.93;13.80;;;23.10;99.90;;;;;;10415426;28;20198;-86
2023/08/13 08:25:49;;;;;;;16.37;15.37;;;23.30;99.90;;;;;;10416467;28;20249;-85
2023/08/13 08:30:53;;;;;;;15.73;14.70;;;23.40;99.90;;;;;;10415130;28;20226;-86
2023/08/13 08:35:55;;;;;;;14.40;13.40;;;23.50;99.90;;;;;;10407372;28;20230;-85
2023/08/13 08:40:58;;;;;;;13.70;12.80;;;23.60;99.90;;;;;;10414840;28;20194;-85
2023/08/13 08:46:03;;;;;;;12.80;12.00;;;23.60;99.90;;;;;;10416942;28;20275;-85
2023/08/13 08:51:05;;;;;;;13.30;12.50;;;23.50;99.90;;;;;;10414823;28;20218;-85
2023/08/13 08:56:07;;;;;;;13.90;12.90;;;23.40;99.90;;;;;;10417799;28;20224;-85
2023/08/13 09:01:11;;;;;;;13.70;12.70;;;23.40;99.90;;;;;;10425453;28;20199;-85
2023/08/13 09:06:13;;;;;;;13.13;12.20;;;23.30;99.90;;;;;;10363192;28;20286;-85
2023/08/13 09:11:15;;;;;;;12.90;11.90;;;23.20;99.90;;;;;;10386398;28;20230;-85
2023/08/13 09:16:19;;;;;;;13.30;12.40;;;23.30;99.90;;;;;;10416586;28;20218;-85
2023/08/13 09:21:25;;;;;;;13.20;12.30;;;23.30;99.90;;;;;;10414890;28;20253;-86
2023/08/13 09:26:28;;;;;;;13.20;12.23;;;23.40;99.90;;;;;;10391008;28;20314;-85
2023/08/13 09:31:31;;;;;;;11.23;10.53;;;23.70;99.90;;;;;;10394373;28;20581;-85
2023/08/13 09:36:34;;;;;;;10.90;10.30;;;24.00;99.90;;;;;;10391155;28;20610;-85
2023/08/13 09:41:37;;;;;;;10.00;9.40;;;24.50;99.90;;;;;;10413022;28;20662;-85
2023/08/13 09:46:41;;;;;;;10.97;10.23;;;25.00;99.90;;;;;;10413006;28;20216;-85
2023/08/13 09:51:45;;;;;;;9.30;8.60;;;25.10;99.90;;;;;;10415057;28;20222;-85
2023/08/13 09:56:58;;;;;;;9.20;8.60;;;25.30;99.90;;;;;;10421438;28;20197;-86
2023/08/13 10:02:02;;;;;;;8.60;8.10;;;25.50;99.90;;;;;;10443478;28;20566;-85
2023/08/13 10:07:05;;;;;;;9.57;8.93;;;25.70;99.90;;;;;;10395783;28;20559;-85
2023/08/13 10:12:09;;;;;;;8.97;8.20;;;26.00;99.90;;;;;;10410557;28;20222;-85
2023/08/13 10:17:18;;;;;;;8.47;7.90;;;26.40;99.90;;;;;;10372598;28;20214;-84
2023/08/13 10:22:32;;;;;;;8.37;7.87;;;26.60;99.90;;;;;;10350963;28;20230;-85
2023/08/13 10:27:36;;;;;;;8.40;7.60;;;26.80;99.90;;;;;;10358890;28;20198;-85
2023/08/13 10:32:49;;;;;;;8.20;7.57;;;26.80;99.90;;;;;;10371241;28;20277;-85
2023/08/13 10:37:52;;;;;;;7.67;7.10;;;26.80;99.90;;;;;;10389885;28;20229;-85
2023/08/13 10:42:55;;;;;;;6.87;6.20;;;26.80;99.90;;;;;;10419931;28;20651;-85
2023/08/13 10:48:00;;;;;;;8.53;7.97;;;27.00;99.90;;;;;;10412950;28;20580;-86
2023/08/13 10:53:08;;;;;;;7.97;7.47;;;27.00;99.90;;;;;;10412494;28;20599;-85
2023/08/13 10:58:23;;;;;;;7.93;7.43;;;27.00;99.90;;;;;;10379129;28;20202;-85
2023/08/13 11:03:30;;;;;;;7.90;7.50;;;26.90;99.90;;;;;;10351944;28;20305;-85
2023/08/13 11:08:33;;;;;;;7.50;7.00;;;26.80;99.90;;;;;;10350659;28;20231;-85
2023/08/13 11:13:35;;;;;;;8.00;7.50;;;26.70;99.90;;;;;;10362653;28;20223;-85
2023/08/13 11:18:39;;;;;;;7.17;6.67;;;26.70;99.90;;;;;;10360448;28;20202;-85
2023/08/13 11:23:41;;;;;;;6.60;6.20;;;26.70;99.90;;;;;;10361082;28;20211;-85
2023/08/13 11:28:45;;;;;;;7.20;6.60;;;26.70;99.90;;;;;;10364561;28;20207;-85
2023/08/13 11:33:51;;;;;;;6.63;6.23;;;26.70;99.90;;;;;;10376819;28;20594;-85
2023/08/13 11:38:53;;;;;;;7.90;7.30;;;26.70;99.90;;;;;;10342667;28;20568;-86
2023/08/13 11:43:55;;;;;;;6.80;6.40;;;26.70;99.90;;;;;;10386671;28;20237;-86
2023/08/13 11:49:02;;;;;;;6.90;6.23;;;26.90;99.90;;;;;;10418799;28;20209;-85
2023/08/13 11:54:10;;;;;;;7.13;6.63;;;26.90;99.90;;;;;;10424182;28;20220;-85
2023/08/13 11:59:12;;;;;;;7.40;6.67;;;26.80;99.90;;;;;;10420415;28;20198;-86
2023/08/13 12:04:16;;;;;;;7.23;6.77;;;26.70;99.90;;;;;;10385053;28;20690;-85
2023/08/13 12:09:18;;;;;;;7.10;6.40;;;26.60;99.90;;;;;;10365881;28;20230;-85
2023/08/13 12:14:20;;;;;;;7.23;6.63;;;26.60;99.90;;;;;;10370792;28;20630;-85
2023/08/13 12:19:24;;;;;;;7.77;7.17;;;26.60;99.90;;;;;;10368220;28;20199;-85
2023/08/13 12:24:26;;;;;;;7.17;6.53;;;26.50;99.90;;;;;;10363063;28;20243;-85
2023/08/13 12:29:28;;;;;;;8.50;7.90;;;26.40;99.90;;;;;;10359118;28;20295;-85
2023/08/13 12:34:31;;;;;;;6.00;5.50;;;26.30;99.90;;;;;;10388919;28;20230;-85
2023/08/13 12:39:34;;;;;;;6.53;5.70;;;26.40;99.90;;;;;;10408036;28;20202;-85
2023/08/13 12:44:36;;;;;;;6.73;6.13;;;26.50;99.90;;;;;;10434312;28;20253;-84
2023/08/13 12:49:39;;;;;;;4.73;4.43;;;26.40;99.90;;;;;;10427975;28;20202;-84
2023/08/13 12:54:41;;;;;;;6.13;5.73;;;26.30;99.90;;;;;;10421834;28;20226;-84
2023/08/13 12:59:43;;;;;;;6.43;5.50;;;26.20;99.90;;;;;;10423974;28;20257;-84
2023/08/13 13:04:47;;;;;;;6.17;5.57;;;26.20;99.90;;;;;;10417820;28;20233;-84
2023/08/13 13:09:50;;;;;;;5.13;4.83;;;26.30;99.90;;;;;;10425840;28;20222;-85
2023/08/13 13:14:52;;;;;;;4.80;4.50;;;26.20;99.90;;;;;;10425344;28;20222;-85
2023/08/13 13:19:55;;;;;;;5.73;5.33;;;26.00;99.90;;;;;;10424460;28;20614;-85
2023/08/13 13:24:58;;;;;;;5.10;4.70;;;26.00;99.90;;;;;;10426089;28;20238;-83
2023/08/13 13:30:01;;;;;;;5.43;5.03;;;26.20;99.90;;;;;;10431298;28;20199;-85
2023/08/13 13:35:05;;;;;;;5.40;5.00;;;26.20;99.90;;;;;;10421609;28;20234;-84
2023/08/13 13:40:09;;;;;;;4.47;4.17;;;26.10;99.90;;;;;;10430885;28;20198;-84
2023/08/13 13:45:12;;;;;;;4.43;4.13;;;26.10;99.90;;;;;;10429388;28;20230;-84
2023/08/13 13:50:16;;;;;;;4.60;4.23;;;26.00;99.90;;;;;;10429099;28;20195;-82
2023/08/13 13:55:18;;;;;;;4.10;3.70;;;26.10;99.90;;;;;;10427367;28;20246;-84
2023/08/13 14:00:20;;;;;;;4.63;4.20;;;26.20;99.90;;;;;;10434971;28;20400;-81
2023/08/13 14:05:24;;;;;;;3.73;3.47;;;26.30;99.90;;;;;;10433396;28;20222;-83
2023/08/13 14:10:26;;;;;;;4.30;4.00;;;26.50;99.90;;;;;;10428505;28;20222;-84
2023/08/13 14:15:28;;;;;;;4.30;3.90;;;26.50;99.90;;;;;;10428423;28;20290;-83
2023/08/13 14:20:31;;;;;;;3.33;3.13;;;26.50;99.90;;;;;;10428848;28;20260;-84
2023/08/13 14:25:34;;;;;;;4.23;4.03;;;26.60;99.90;;;;;;10427951;28;20282;-84
2023/08/13 14:30:36;;;;;;;3.77;3.57;;;26.50;99.90;;;;;;10429040;28;20222;-84
2023/08/13 14:35:39;;;;;;;4.90;4.53;;;26.30;99.90;;;;;;10411011;28;20231;-84
2023/08/13 14:40:41;;;;;;;4.10;3.80;;;26.00;99.90;;;;;;10429138;28;20237;-84
2023/08/13 14:45:44;;;;;;;3.80;3.60;;;25.90;99.90;;;;;;10435098;28;20222;-84
2023/08/13 14:50:48;;;;;;;5.80;3.53;;;25.70;99.90;;;;;;10439791;28;20267;-84
2023/08/13 14:55:50;;;;;;;4.20;3.90;;;25.60;99.90;;;;;;10446321;28;20445;-84
2023/08/13 15:00:53;;;;;;;4.20;3.90;;;25.60;99.90;;;;;;10444524;28;20228;-83
2023/08/13 15:05:56;;;;;;;3.33;3.23;;;25.50;99.90;;;;;;10413089;28;20238;-83
2023/08/13 15:10:58;;;;;;;4.23;3.83;;;25.50;99.90;;;;;;10435121;28;20206;-83
2023/08/13 15:16:00;;;;;;;3.93;3.73;;;25.40;99.90;;;;;;10408237;28;20312;-84
2023/08/13 15:21:04;;;;;;;3.73;3.50;;;25.40;99.90;;;;;;10437696;28;20674;-82
2023/08/13 15:26:09;;;;;;;3.60;3.37;;;25.40;99.90;;;;;;10431343;28;20222;-84
2023/08/13 15:31:11;;;;;;;3.73;3.53;;;25.50;99.90;;;;;;10427527;28;20203;-84
2023/08/13 15:36:15;;;;;;;4.03;3.50;;;25.50;99.90;;;;;;10401452;28;20221;-84
2023/08/13 15:41:18;;;;;;;3.90;3.50;;;25.50;99.90;;;;;;10427222;28;20229;-84
2023/08/13 15:46:20;;;;;;;3.63;3.43;;;25.50;99.90;;;;;;10426847;28;20245;-84
2023/08/13 15:51:23;;;;;;;3.67;3.47;;;25.50;99.90;;;;;;10426674;28;20233;-84
2023/08/13 15:56:25;;;;;;;4.37;4.07;;;25.60;99.90;;;;;;10428186;28;20218;-84
2023/08/13 16:01:28;;;;;;;3.47;3.17;;;25.70;99.90;;;;;;10434546;28;20202;-84
2023/08/13 16:06:31;;;;;;;4.50;3.90;;;25.60;99.90;;;;;;10417232;28;20858;-84
2023/08/13 16:11:34;;;;;;;3.67;3.47;;;25.60;99.90;;;;;;10400271;28;20213;-83
2023/08/13 16:16:36;;;;;;;3.90;3.70;;;25.80;99.90;;;;;;10411790;28;20349;-83
2023/08/13 16:21:40;;;;;;;3.73;3.43;;;25.90;99.90;;;;;;10417152;28;20202;-84
2023/08/13 16:26:42;;;;;;;3.73;3.50;;;25.90;99.90;;;;;;10418732;28;20218;-82
2023/08/13 16:31:44;;;;;;;4.50;3.30;;;25.90;99.90;;;;;;10420756;28;20206;-85
2023/08/13 16:36:48;;;;;;;4.73;3.33;;;25.90;99.90;;;;;;10391543;28;20276;-84
2023/08/13 16:41:50;;;;;;;4.17;3.77;;;25.80;99.90;;;;;;10424310;28;20191;-82
2023/08/13 16:46:52;;;;;;;5.67;4.57;;;25.70;99.90;;;;;;10449556;22;20234;-80
2023/08/13 16:51:56;;;;;;;5.20;4.80;;;25.70;99.90;;;;;;10422632;28;20289;-79
2023/08/13 16:56:58;;;;;;;5.10;4.80;;;25.30;99.90;;;;;;10425659;28;20225;-79
2023/08/13 17:02:00;;;;;;;5.37;4.97;;;24.80;99.90;;;;;;10456955;28;20721;-78
2023/08/13 17:07:04;;;;;;;5.50;5.20;;;24.40;99.90;;;;;;10432581;28;20710;-79
2023/08/13 17:12:06;;;;;;;5.47;4.97;;;24.20;99.90;;;;;;10420640;28;20230;-78
2023/08/13 17:17:08;;;;;;;5.90;5.40;;;23.90;99.90;;;;;;10452340;28;20214;-79
2023/08/13 17:22:12;;;;;;;5.97;5.47;;;23.80;99.90;;;;;;10456650;28;20190;-79
2023/08/13 17:27:14;;;;;;;7.90;7.10;;;23.70;99.90;;;;;;10418378;28;20204;-80
2023/08/13 17:32:16;;;;;;;11.90;6.00;;;23.70;99.90;;;;;;10415986;28;20238;-79
2023/08/13 17:37:19;;;;;;;5.43;5.00;;;23.70;99.90;;;;;;10415633;28;20199;-78
2023/08/13 17:42:23;;;;;;;5.60;5.20;;;23.70;99.90;;;;;;10415134;28;20309;-79
2023/08/13 17:47:28;;;;;;;5.40;5.00;;;23.80;99.90;;;;;;10436537;28;20217;-79
2023/08/13 17:52:31;;;;;;;5.43;5.03;;;23.80;99.90;;;;;;10376174;28;20558;-79
2023/08/13 17:57:33;;;;;;;5.73;5.33;;;23.80;99.90;;;;;;10422621;28;20202;-79
2023/08/13 18:02:36;;;;;;;5.83;5.43;;;23.90;99.90;;;;;;10416663;28;20569;-79
2023/08/13 18:07:39;;;;;;;5.33;5.03;;;23.90;99.90;;;;;;10455616;28;20201;-79
2023/08/13 18:12:59;;;;;;;5.67;5.27;;;23.80;99.90;;;;;;10390107;28;20296;-81
2023/08/13 18:18:09;;;;;;;5.80;5.30;;;23.70;99.90;;;;;;10399804;28;20223;-79
2023/08/13 18:23:13;;;;;;;5.23;4.93;;;23.70;99.90;;;;;;10416622;28;20211;-78
2023/08/13 18:28:17;;;;;;;5.27;4.97;;;23.60;99.90;;;;;;10444160;28;20257;-79
2023/08/13 18:33:22;;;;;;;6.60;6.10;;;23.50;99.90;;;;;;10399264;28;20330;-79
2023/08/13 18:38:26;;;;;;;5.23;4.83;;;23.50;99.90;;;;;;10397287;28;20575;-78
2023/08/13 18:43:28;;;;;;;4.50;4.10;;;23.40;99.90;;;;;;10386164;28;20277;-78
2023/08/13 18:48:30;;;;;;;4.93;4.63;;;23.30;99.90;;;;;;10379959;28;20797;-78
2023/08/13 18:53:37;;;;;;;6.07;4.90;;;23.30;99.90;;;;;;10402967;28;20238;-78
2023/08/13 18:58:41;;;;;;;5.07;4.50;;;23.20;99.90;;;;;;10421959;28;20202;-79
2023/08/13 19:03:46;;;;;;;5.00;4.50;;;23.10;99.90;;;;;;10414839;28;20219;-78
2023/08/13 19:08:50;;;;;;;4.37;4.07;;;23.10;99.90;;;;;;10447186;28;20292;-79
2023/08/13 19:13:55;;;;;;;6.03;4.80;;;23.00;99.90;;;;;;10453757;28;20231;-79
2023/08/13 19:19:00;;;;;;;8.03;4.90;;;23.00;99.90;;;;;;10422979;28;20220;-79
2023/08/13 19:24:04;;;;;;;5.03;4.60;;;22.90;99.90;;;;;;10414344;28;20225;-78
2023/08/13 19:29:06;;;;;;;4.80;4.50;;;22.90;99.90;;;;;;10410134;28;20210;-79
2023/08/13 19:34:08;;;;;;;5.07;4.67;;;22.90;99.90;;;;;;10384049;28;20330;-78
2023/08/13 19:39:12;;;;;;;5.17;4.87;;;22.80;99.90;;;;;;10398359;28;20709;-79
2023/08/13 19:44:17;;;;;;;4.90;4.60;;;22.80;99.90;;;;;;10392101;28;20222;-79
2023/08/13 19:49:22;;;;;;;5.63;5.20;;;22.80;99.90;;;;;;10403472;28;20213;-79
2023/08/13 19:54:26;;;;;;;6.07;5.67;;;22.70;99.90;;;;;;10405413;28;20582;-79
2023/08/13 19:59:29;;;;;;;5.30;4.80;;;22.70;99.90;;;;;;10388159;28;21327;-79
2023/08/13 20:04:31;;;;;;;5.23;4.57;;;22.70;99.90;;;;;;10427643;28;20646;-79
2023/08/13 20:09:35;;;;;;;5.90;5.30;;;22.60;99.90;;;;;;10423902;28;21012;-79
2023/08/13 20:14:37;;;;;;;4.70;4.40;;;22.50;99.90;;;;;;10417931;28;20660;-78
2023/08/13 20:19:39;;;;;;;5.00;4.70;;;22.50;99.90;;;;;;10445879;28;20203;-79
2023/08/13 20:24:43;;;;;;;5.03;4.63;;;22.50;99.90;;;;;;10443685;28;20206;-79
2023/08/13 20:29:45;;;;;;;5.90;5.30;;;22.50;99.90;;;;;;10439989;28;20202;-78
2023/08/13 20:34:55;;;;;;;5.40;5.00;;;22.50;99.90;;;;;;10459517;28;20281;-79
2023/08/13 20:40:04;;;;;;;5.50;5.00;;;22.40;99.90;;;;;;10422220;28;20269;-79
2023/08/13 20:45:11;;;;;;;5.53;5.03;;;22.40;99.90;;;;;;10421107;28;20246;-78
2023/08/13 20:50:16;;;;;;;10.83;5.83;;;22.40;99.90;;;;;;10421461;28;20665;-79
2023/08/13 20:55:20;;;;;;;6.10;5.70;;;22.40;99.90;;;;;;10420409;28;20227;-79
2023/08/13 21:00:25;;;;;;;10.33;6.00;;;22.30;99.90;;;;;;10439626;28;20195;-79
2023/08/13 21:05:31;;;;;;;6.20;5.70;;;22.30;99.90;;;;;;10418136;28;20214;-79
2023/08/13 21:10:34;;;;;;;6.43;5.93;;;22.30;99.90;;;;;;10420821;28;20226;-79
2023/08/13 21:15:36;;;;;;;5.80;5.50;;;22.30;99.90;;;;;;10422916;28;20226;-79
2023/08/13 21:20:39;;;;;;;5.43;5.10;;;22.30;99.90;;;;;;10430391;28;20744;-79
2023/08/13 21:25:42;;;;;;;6.57;5.97;;;22.30;99.90;;;;;;10414964;28;20276;-77
2023/08/13 21:30:44;;;;;;;6.20;5.70;;;22.30;99.90;;;;;;10414683;28;20666;-78
2023/08/13 21:35:46;;;;;;;6.50;6.07;;;22.30;99.90;;;;;;10419327;28;20317;-78
2023/08/13 21:40:50;;;;;;;6.73;6.23;;;22.30;99.90;;;;;;10425356;28;20195;-79
2023/08/13 21:45:52;;;;;;;6.10;5.70;;;22.30;99.90;;;;;;10418807;28;20322;-79
2023/08/13 21:50:54;;;;;;;6.03;5.63;;;22.30;99.90;;;;;;10416647;28;20199;-78
2023/08/13 21:55:58;;;;;;;7.00;6.40;;;22.30;99.90;;;;;;10421719;28;20214;-79
2023/08/13 22:01:00;;;;;;;5.83;5.40;;;22.30;99.90;;;;;;10419118;28;20706;-79
2023/08/13 22:06:04;;;;;;;5.73;5.23;;;22.30;99.90;;;;;;10411834;28;20254;-78
2023/08/13 22:11:08;;;;;;;8.03;6.20;;;22.30;99.90;;;;;;10413473;28;20630;-79
2023/08/13 22:16:10;;;;;;;6.53;5.77;;;22.20;99.90;;;;;;10417004;28;20288;-79
2023/08/13 22:21:12;;;;;;;6.80;5.10;;;22.20;99.90;;;;;;10416091;28;20517;-79
2023/08/13 22:26:16;;;;;;;6.40;5.80;;;22.20;99.90;;;;;;10409988;28;20242;-78
2023/08/13 22:31:19;;;;;;;6.10;5.73;;;22.20;99.90;;;;;;10398352;28;20203;-80
2023/08/13 22:36:21;;;;;;;6.03;5.53;;;22.20;99.90;;;;;;10401889;28;20235;-79
2023/08/13 22:41:25;;;;;;;5.80;5.40;;;22.20;99.90;;;;;;10389838;28;20210;-78
2023/08/13 22:46:27;;;;;;;6.27;5.70;;;22.20;99.90;;;;;;10405206;23;20726;-78
2023/08/13 22:51:30;;;;;;;5.93;5.63;;;22.20;99.90;;;;;;10394961;28;20207;-77
2023/08/13 22:56:33;;;;;;;6.20;5.70;;;22.20;99.90;;;;;;10399046;28;20234;-79
2023/08/13 23:01:35;;;;;;;6.77;6.10;;;22.20;99.90;;;;;;10396246;28;20198;-78
2023/08/13 23:06:37;;;;;;;6.10;5.60;;;22.20;99.90;;;;;;10398172;28;20222;-78
2023/08/13 23:11:41;;;;;;;6.57;6.13;;;22.20;99.90;;;;;;10398407;28;20206;-78
2023/08/13 23:16:43;;;;;;;6.43;6.03;;;22.20;99.90;;;;;;10404138;28;20237;-78
2023/08/13 23:21:45;;;;;;;6.43;5.93;;;22.20;99.90;;;;;;10397210;28;20280;-78
2023/08/13 23:26:48;;;;;;;7.50;6.80;;;22.10;99.90;;;;;;10416163;28;20246;-79
2023/08/13 23:31:51;;;;;;;6.83;6.33;;;22.10;99.90;;;;;;10400992;28;20658;-79
2023/08/13 23:36:53;;;;;;;7.57;7.00;;;22.10;99.90;;;;;;10404546;28;20288;-80
2023/08/13 23:41:56;;;;;;;6.70;6.20;;;22.10;99.90;;;;;;10402264;28;20685;-80
2023/08/13 23:46:59;;;;;;;6.40;6.00;;;22.10;99.90;;;;;;10401629;28;20728;-79
2023/08/13 23:52:01;;;;;;;7.63;7.03;;;22.10;99.90;;;;;;10400032;28;20249;-79
2023/08/13 23:57:05;;;;;;;10.40;7.80;;;22.10;99.90;;;;;;10400319;28;20238;-79
